sensor_id;sensor_type;location;lat;lon;timestamp;P1;durP1;ratioP1;P2;durP2;ratioP2
71806;SDS011;59655;42.590;23.364;2024-01-27T00:01:32;10.30;;;4.80;;
71806;SDS011;59655;42.590;23.364;2024-01-27T00:03:57;9.00;;;2.90;;
71806;SDS011;59655;42.590;23.364;2024-01-27T00:06:23;15.35;;;6.38;;
71806;SDS011;59655;42.590;23.364;2024-01-27T00:08:48;20.48;;;8.45;;
71806;SDS011;59655;42.590;23.364;2024-01-27T00:11:13;28.52;;;10.70;;
71806;SDS011;59655;42.590;23.364;2024-01-27T00:13:39;34.30;;;11.15;;
71806;SDS011;59655;42.590;23.364;2024-01-27T00:16:04;21.63;;;7.47;;
71806;SDS011;59655;42.590;23.364;2024-01-27T00:18:32;19.05;;;7.25;;
71806;SDS011;59655;42.590;23.364;2024-01-27T00:20:57;15.70;;;5.85;;
71806;SDS011;59655;42.590;23.364;2024-01-27T00:23:22;18.35;;;6.30;;
71806;SDS011;59655;42.590;23.364;2024-01-27T00:25:48;16.73;;;5.63;;
71806;SDS011;59655;42.590;23.364;2024-01-27T00:28:13;12.60;;;4.20;;
71806;SDS011;59655;42.590;23.364;2024-01-27T00:30:38;12.80;;;4.43;;
71806;SDS011;59655;42.590;23.364;2024-01-27T00:33:04;14.10;;;5.70;;
71806;SDS011;59655;42.590;23.364;2024-01-27T00:35:29;17.63;;;8.68;;
71806;SDS011;59655;42.590;23.364;2024-01-27T00:37:54;9.45;;;4.22;;
71806;SDS011;59655;42.590;23.364;2024-01-27T00:40:20;13.70;;;6.47;;
71806;SDS011;59655;42.590;23.364;2024-01-27T00:42:45;17.00;;;9.10;;
71806;SDS011;59655;42.590;23.364;2024-01-27T00:45:10;20.25;;;7.05;;
71806;SDS011;59655;42.590;23.364;2024-01-27T00:47:36;15.10;;;5.53;;
71806;SDS011;59655;42.590;23.364;2024-01-27T00:50:02;11.23;;;4.57;;
71806;SDS011;59655;42.590;23.364;2024-01-27T00:52:28;10.05;;;3.00;;
71806;SDS011;59655;42.590;23.364;2024-01-27T00:54:53;7.25;;;2.15;;
71806;SDS011;59655;42.590;23.364;2024-01-27T00:57:18;7.13;;;2.10;;
71806;SDS011;59655;42.590;23.364;2024-01-27T00:59:44;7.77;;;2.60;;
71806;SDS011;59655;42.590;23.364;2024-01-27T01:02:10;15.38;;;5.30;;
71806;SDS011;59655;42.590;23.364;2024-01-27T01:04:36;12.10;;;5.10;;
71806;SDS011;59655;42.590;23.364;2024-01-27T01:07:02;14.35;;;4.70;;
71806;SDS011;59655;42.590;23.364;2024-01-27T01:09:28;14.68;;;4.93;;
71806;SDS011;59655;42.590;23.364;2024-01-27T01:11:53;22.73;;;8.23;;
71806;SDS011;59655;42.590;23.364;2024-01-27T01:14:19;13.20;;;5.47;;
71806;SDS011;59655;42.590;23.364;2024-01-27T01:16:45;12.30;;;4.63;;
71806;SDS011;59655;42.590;23.364;2024-01-27T01:19:10;25.67;;;16.80;;
71806;SDS011;59655;42.590;23.364;2024-01-27T01:21:35;10.15;;;5.80;;
71806;SDS011;59655;42.590;23.364;2024-01-27T01:24:03;8.02;;;3.40;;
71806;SDS011;59655;42.590;23.364;2024-01-27T01:26:28;5.55;;;1.65;;
71806;SDS011;59655;42.590;23.364;2024-01-27T01:28:53;7.38;;;2.17;;
71806;SDS011;59655;42.590;23.364;2024-01-27T01:31:19;3.53;;;1.50;;
71806;SDS011;59655;42.590;23.364;2024-01-27T01:33:44;2.33;;;0.47;;
71806;SDS011;59655;42.590;23.364;2024-01-27T01:36:09;3.73;;;0.60;;
71806;SDS011;59655;42.590;23.364;2024-01-27T01:38:35;1.85;;;0.50;;
71806;SDS011;59655;42.590;23.364;2024-01-27T01:41:00;1.95;;;0.68;;
71806;SDS011;59655;42.590;23.364;2024-01-27T01:43:26;2.35;;;0.60;;
71806;SDS011;59655;42.590;23.364;2024-01-27T01:45:52;1.98;;;0.40;;
71806;SDS011;59655;42.590;23.364;2024-01-27T01:48:19;3.25;;;0.60;;
71806;SDS011;59655;42.590;23.364;2024-01-27T01:50:45;1.67;;;0.60;;
71806;SDS011;59655;42.590;23.364;2024-01-27T01:53:11;1.90;;;0.60;;
71806;SDS011;59655;42.590;23.364;2024-01-27T01:55:37;0.85;;;0.50;;
71806;SDS011;59655;42.590;23.364;2024-01-27T01:58:03;3.38;;;0.95;;
71806;SDS011;59655;42.590;23.364;2024-01-27T02:00:31;2.13;;;1.15;;
71806;SDS011;59655;42.590;23.364;2024-01-27T02:02:57;2.78;;;1.23;;
71806;SDS011;59655;42.590;23.364;2024-01-27T02:05:22;8.55;;;4.53;;
71806;SDS011;59655;42.590;23.364;2024-01-27T02:07:48;8.00;;;2.58;;
71806;SDS011;59655;42.590;23.364;2024-01-27T02:10:14;2.72;;;1.27;;
71806;SDS011;59655;42.590;23.364;2024-01-27T02:12:43;3.65;;;1.30;;
71806;SDS011;59655;42.590;23.364;2024-01-27T02:15:11;2.95;;;0.95;;
71806;SDS011;59655;42.590;23.364;2024-01-27T02:17:38;2.75;;;1.10;;
71806;SDS011;59655;42.590;23.364;2024-01-27T02:20:05;4.43;;;1.25;;
71806;SDS011;59655;42.590;23.364;2024-01-27T02:22:32;5.60;;;2.10;;
71806;SDS011;59655;42.590;23.364;2024-01-27T02:24:58;4.30;;;1.73;;
71806;SDS011;59655;42.590;23.364;2024-01-27T02:27:25;5.05;;;3.05;;
71806;SDS011;59655;42.590;23.364;2024-01-27T02:29:50;14.50;;;9.90;;
71806;SDS011;59655;42.590;23.364;2024-01-27T02:32:16;8.80;;;4.78;;
71806;SDS011;59655;42.590;23.364;2024-01-27T02:34:41;4.57;;;1.83;;
71806;SDS011;59655;42.590;23.364;2024-01-27T02:37:07;3.60;;;1.40;;
71806;SDS011;59655;42.590;23.364;2024-01-27T02:39:32;4.03;;;1.50;;
71806;SDS011;59655;42.590;23.364;2024-01-27T02:41:57;4.43;;;1.58;;
71806;SDS011;59655;42.590;23.364;2024-01-27T02:44:23;5.70;;;1.25;;
71806;SDS011;59655;42.590;23.364;2024-01-27T02:46:48;4.28;;;1.20;;
71806;SDS011;59655;42.590;23.364;2024-01-27T02:49:14;4.28;;;1.20;;
71806;SDS011;59655;42.590;23.364;2024-01-27T02:51:40;5.10;;;1.67;;
71806;SDS011;59655;42.590;23.364;2024-01-27T02:54:06;5.45;;;1.73;;
71806;SDS011;59655;42.590;23.364;2024-01-27T02:56:31;4.93;;;2.50;;
71806;SDS011;59655;42.590;23.364;2024-01-27T02:58:57;7.30;;;1.70;;
71806;SDS011;59655;42.590;23.364;2024-01-27T03:01:22;7.88;;;2.17;;
71806;SDS011;59655;42.590;23.364;2024-01-27T03:03:47;7.47;;;1.80;;
71806;SDS011;59655;42.590;23.364;2024-01-27T03:06:13;7.30;;;2.47;;
71806;SDS011;59655;42.590;23.364;2024-01-27T03:08:38;5.05;;;1.80;;
71806;SDS011;59655;42.590;23.364;2024-01-27T03:11:03;5.53;;;2.20;;
71806;SDS011;59655;42.590;23.364;2024-01-27T03:13:29;10.88;;;3.30;;
71806;SDS011;59655;42.590;23.364;2024-01-27T03:15:54;9.23;;;3.25;;
71806;SDS011;59655;42.590;23.364;2024-01-27T03:18:21;9.10;;;3.25;;
71806;SDS011;59655;42.590;23.364;2024-01-27T03:20:47;9.13;;;3.42;;
71806;SDS011;59655;42.590;23.364;2024-01-27T03:23:12;6.88;;;2.47;;
71806;SDS011;59655;42.590;23.364;2024-01-27T03:25:38;25.50;;;16.02;;
71806;SDS011;59655;42.590;23.364;2024-01-27T03:28:03;13.45;;;5.57;;
71806;SDS011;59655;42.590;23.364;2024-01-27T03:30:29;9.68;;;4.15;;
71806;SDS011;59655;42.590;23.364;2024-01-27T03:32:54;10.50;;;4.82;;
71806;SDS011;59655;42.590;23.364;2024-01-27T03:35:19;11.13;;;4.47;;
71806;SDS011;59655;42.590;23.364;2024-01-27T03:37:45;8.48;;;3.28;;
71806;SDS011;59655;42.590;23.364;2024-01-27T03:40:10;11.70;;;5.75;;
71806;SDS011;59655;42.590;23.364;2024-01-27T03:42:36;12.38;;;7.38;;
71806;SDS011;59655;42.590;23.364;2024-01-27T03:45:02;13.40;;;8.10;;
71806;SDS011;59655;42.590;23.364;2024-01-27T03:47:27;8.65;;;4.55;;
71806;SDS011;59655;42.590;23.364;2024-01-27T03:49:52;7.38;;;2.70;;
71806;SDS011;59655;42.590;23.364;2024-01-27T03:52:18;14.05;;;7.00;;
71806;SDS011;59655;42.590;23.364;2024-01-27T03:54:43;11.43;;;4.70;;
71806;SDS011;59655;42.590;23.364;2024-01-27T03:57:08;7.85;;;3.67;;
71806;SDS011;59655;42.590;23.364;2024-01-27T03:59:34;7.72;;;3.10;;
71806;SDS011;59655;42.590;23.364;2024-01-27T04:01:59;6.35;;;2.80;;
71806;SDS011;59655;42.590;23.364;2024-01-27T04:04:24;8.73;;;3.25;;
71806;SDS011;59655;42.590;23.364;2024-01-27T04:06:50;10.60;;;3.38;;
71806;SDS011;59655;42.590;23.364;2024-01-27T04:09:15;9.38;;;2.67;;
71806;SDS011;59655;42.590;23.364;2024-01-27T04:11:42;6.07;;;2.10;;
71806;SDS011;59655;42.590;23.364;2024-01-27T04:14:07;5.95;;;2.17;;
71806;SDS011;59655;42.590;23.364;2024-01-27T04:16:33;6.70;;;2.05;;
71806;SDS011;59655;42.590;23.364;2024-01-27T04:18:58;9.40;;;2.33;;
71806;SDS011;59655;42.590;23.364;2024-01-27T04:21:23;7.53;;;1.88;;
71806;SDS011;59655;42.590;23.364;2024-01-27T04:23:49;6.68;;;1.83;;
71806;SDS011;59655;42.590;23.364;2024-01-27T04:26:14;8.82;;;2.00;;
71806;SDS011;59655;42.590;23.364;2024-01-27T04:28:40;5.30;;;2.00;;
71806;SDS011;59655;42.590;23.364;2024-01-27T04:31:07;6.28;;;2.17;;
71806;SDS011;59655;42.590;23.364;2024-01-27T04:33:32;4.47;;;2.30;;
71806;SDS011;59655;42.590;23.364;2024-01-27T04:35:58;6.75;;;1.90;;
71806;SDS011;59655;42.590;23.364;2024-01-27T04:38:24;6.60;;;2.80;;
71806;SDS011;59655;42.590;23.364;2024-01-27T04:40:50;5.28;;;2.58;;
71806;SDS011;59655;42.590;23.364;2024-01-27T04:43:16;7.65;;;2.70;;
71806;SDS011;59655;42.590;23.364;2024-01-27T04:45:42;5.53;;;2.40;;
71806;SDS011;59655;42.590;23.364;2024-01-27T04:48:08;6.97;;;2.75;;
71806;SDS011;59655;42.590;23.364;2024-01-27T04:50:33;7.20;;;2.80;;
71806;SDS011;59655;42.590;23.364;2024-01-27T04:52:59;9.45;;;3.45;;
71806;SDS011;59655;42.590;23.364;2024-01-27T04:55:24;6.63;;;2.72;;
71806;SDS011;59655;42.590;23.364;2024-01-27T04:57:49;4.67;;;2.20;;
71806;SDS011;59655;42.590;23.364;2024-01-27T05:00:16;7.53;;;3.07;;
71806;SDS011;59655;42.590;23.364;2024-01-27T05:02:42;5.43;;;2.28;;
71806;SDS011;59655;42.590;23.364;2024-01-27T05:05:07;10.98;;;3.47;;
71806;SDS011;59655;42.590;23.364;2024-01-27T05:07:33;7.15;;;2.95;;
71806;SDS011;59655;42.590;23.364;2024-01-27T05:09:59;9.30;;;3.80;;
71806;SDS011;59655;42.590;23.364;2024-01-27T05:12:24;6.93;;;2.97;;
71806;SDS011;59655;42.590;23.364;2024-01-27T05:14:51;16.08;;;4.53;;
71806;SDS011;59655;42.590;23.364;2024-01-27T05:17:16;11.10;;;5.20;;
71806;SDS011;59655;42.590;23.364;2024-01-27T05:19:42;16.85;;;5.15;;
71806;SDS011;59655;42.590;23.364;2024-01-27T05:22:07;11.98;;;4.70;;
71806;SDS011;59655;42.590;23.364;2024-01-27T05:24:32;21.67;;;7.07;;
71806;SDS011;59655;42.590;23.364;2024-01-27T05:26:58;17.58;;;6.90;;
71806;SDS011;59655;42.590;23.364;2024-01-27T05:29:24;15.27;;;5.45;;
71806;SDS011;59655;42.590;23.364;2024-01-27T05:31:49;16.20;;;6.28;;
71806;SDS011;59655;42.590;23.364;2024-01-27T05:34:14;14.07;;;5.45;;
71806;SDS011;59655;42.590;23.364;2024-01-27T05:36:40;15.25;;;6.05;;
71806;SDS011;59655;42.590;23.364;2024-01-27T05:39:05;12.25;;;5.47;;
71806;SDS011;59655;42.590;23.364;2024-01-27T05:41:31;11.77;;;4.45;;
71806;SDS011;59655;42.590;23.364;2024-01-27T05:43:57;8.20;;;2.53;;
71806;SDS011;59655;42.590;23.364;2024-01-27T05:46:25;8.73;;;3.00;;
71806;SDS011;59655;42.590;23.364;2024-01-27T05:48:51;9.48;;;3.65;;
71806;SDS011;59655;42.590;23.364;2024-01-27T05:51:25;8.52;;;2.55;;
71806;SDS011;59655;42.590;23.364;2024-01-27T05:53:50;10.68;;;4.10;;
71806;SDS011;59655;42.590;23.364;2024-01-27T05:56:15;8.00;;;3.58;;
71806;SDS011;59655;42.590;23.364;2024-01-27T05:58:43;6.95;;;2.55;;
71806;SDS011;59655;42.590;23.364;2024-01-27T06:01:09;10.57;;;4.53;;
71806;SDS011;59655;42.590;23.364;2024-01-27T06:03:34;19.00;;;6.72;;
71806;SDS011;59655;42.590;23.364;2024-01-27T06:06:01;21.00;;;9.60;;
71806;SDS011;59655;42.590;23.364;2024-01-27T06:08:26;16.05;;;7.20;;
71806;SDS011;59655;42.590;23.364;2024-01-27T06:10:52;18.08;;;7.78;;
71806;SDS011;59655;42.590;23.364;2024-01-27T06:13:17;16.98;;;8.60;;
71806;SDS011;59655;42.590;23.364;2024-01-27T06:15:43;12.23;;;6.00;;
71806;SDS011;59655;42.590;23.364;2024-01-27T06:18:08;8.25;;;3.78;;
71806;SDS011;59655;42.590;23.364;2024-01-27T06:20:33;5.70;;;2.00;;
71806;SDS011;59655;42.590;23.364;2024-01-27T06:22:59;3.72;;;1.45;;
71806;SDS011;59655;42.590;23.364;2024-01-27T06:25:24;2.78;;;1.13;;
71806;SDS011;59655;42.590;23.364;2024-01-27T06:27:49;2.75;;;0.85;;
71806;SDS011;59655;42.590;23.364;2024-01-27T06:30:15;2.10;;;1.00;;
71806;SDS011;59655;42.590;23.364;2024-01-27T06:32:41;3.15;;;1.17;;
71806;SDS011;59655;42.590;23.364;2024-01-27T06:35:07;1.40;;;0.80;;
71806;SDS011;59655;42.590;23.364;2024-01-27T06:37:32;1.60;;;0.75;;
71806;SDS011;59655;42.590;23.364;2024-01-27T06:39:58;1.95;;;0.73;;
71806;SDS011;59655;42.590;23.364;2024-01-27T06:42:23;1.25;;;0.65;;
71806;SDS011;59655;42.590;23.364;2024-01-27T06:44:49;1.40;;;0.70;;
71806;SDS011;59655;42.590;23.364;2024-01-27T06:47:14;2.20;;;0.70;;
71806;SDS011;59655;42.590;23.364;2024-01-27T06:49:40;2.78;;;0.90;;
71806;SDS011;59655;42.590;23.364;2024-01-27T06:52:06;3.13;;;0.60;;
71806;SDS011;59655;42.590;23.364;2024-01-27T06:54:31;1.40;;;0.50;;
71806;SDS011;59655;42.590;23.364;2024-01-27T06:56:58;1.05;;;0.50;;
71806;SDS011;59655;42.590;23.364;2024-01-27T06:59:24;0.70;;;0.38;;
71806;SDS011;59655;42.590;23.364;2024-01-27T07:01:50;1.63;;;0.68;;
71806;SDS011;59655;42.590;23.364;2024-01-27T07:04:15;0.77;;;0.40;;
71806;SDS011;59655;42.590;23.364;2024-01-27T07:06:41;0.90;;;0.50;;
71806;SDS011;59655;42.590;23.364;2024-01-27T07:09:06;1.70;;;0.73;;
71806;SDS011;59655;42.590;23.364;2024-01-27T07:11:32;1.23;;;0.60;;
71806;SDS011;59655;42.590;23.364;2024-01-27T07:13:58;0.85;;;0.40;;
71806;SDS011;59655;42.590;23.364;2024-01-27T07:16:23;0.40;;;0.30;;
71806;SDS011;59655;42.590;23.364;2024-01-27T07:18:49;1.48;;;0.50;;
71806;SDS011;59655;42.590;23.364;2024-01-27T07:21:15;1.00;;;0.47;;
71806;SDS011;59655;42.590;23.364;2024-01-27T07:23:44;3.10;;;1.02;;
71806;SDS011;59655;42.590;23.364;2024-01-27T07:26:09;0.32;;;0.30;;
71806;SDS011;59655;42.590;23.364;2024-01-27T07:28:36;1.52;;;0.55;;
71806;SDS011;59655;42.590;23.364;2024-01-27T07:31:01;1.20;;;0.60;;
71806;SDS011;59655;42.590;23.364;2024-01-27T07:33:27;1.55;;;0.50;;
71806;SDS011;59655;42.590;23.364;2024-01-27T07:35:52;2.45;;;0.70;;
71806;SDS011;59655;42.590;23.364;2024-01-27T07:38:18;2.47;;;0.77;;
71806;SDS011;59655;42.590;23.364;2024-01-27T07:40:43;1.90;;;0.70;;
71806;SDS011;59655;42.590;23.364;2024-01-27T07:43:08;2.08;;;0.70;;
71806;SDS011;59655;42.590;23.364;2024-01-27T07:45:34;2.35;;;1.10;;
71806;SDS011;59655;42.590;23.364;2024-01-27T07:47:59;1.50;;;0.80;;
71806;SDS011;59655;42.590;23.364;2024-01-27T07:50:25;2.47;;;0.95;;
71806;SDS011;59655;42.590;23.364;2024-01-27T07:52:50;4.55;;;1.13;;
71806;SDS011;59655;42.590;23.364;2024-01-27T07:55:15;3.53;;;0.98;;
71806;SDS011;59655;42.590;23.364;2024-01-27T07:57:42;3.70;;;1.02;;
71806;SDS011;59655;42.590;23.364;2024-01-27T08:00:08;2.75;;;1.10;;
71806;SDS011;59655;42.590;23.364;2024-01-27T08:02:33;3.33;;;1.08;;
71806;SDS011;59655;42.590;23.364;2024-01-27T08:04:59;2.78;;;1.30;;
71806;SDS011;59655;42.590;23.364;2024-01-27T08:07:24;2.53;;;1.30;;
71806;SDS011;59655;42.590;23.364;2024-01-27T08:09:51;3.67;;;1.40;;
71806;SDS011;59655;42.590;23.364;2024-01-27T08:12:16;4.25;;;1.40;;
71806;SDS011;59655;42.590;23.364;2024-01-27T08:14:42;4.35;;;1.40;;
71806;SDS011;59655;42.590;23.364;2024-01-27T08:17:07;3.28;;;1.20;;
71806;SDS011;59655;42.590;23.364;2024-01-27T08:19:32;4.75;;;1.33;;
71806;SDS011;59655;42.590;23.364;2024-01-27T08:21:58;2.72;;;1.20;;
71806;SDS011;59655;42.590;23.364;2024-01-27T08:24:23;1.67;;;1.00;;
71806;SDS011;59655;42.590;23.364;2024-01-27T08:26:49;3.25;;;1.20;;
71806;SDS011;59655;42.590;23.364;2024-01-27T08:29:16;6.63;;;1.45;;
71806;SDS011;59655;42.590;23.364;2024-01-27T08:31:41;3.17;;;1.17;;
71806;SDS011;59655;42.590;23.364;2024-01-27T08:34:07;3.63;;;1.20;;
71806;SDS011;59655;42.590;23.364;2024-01-27T08:36:32;2.53;;;1.30;;
71806;SDS011;59655;42.590;23.364;2024-01-27T08:38:59;2.95;;;1.25;;
71806;SDS011;59655;42.590;23.364;2024-01-27T08:41:25;4.10;;;1.52;;
71806;SDS011;59655;42.590;23.364;2024-01-27T08:43:51;2.50;;;1.10;;
71806;SDS011;59655;42.590;23.364;2024-01-27T08:46:16;2.85;;;1.00;;
71806;SDS011;59655;42.590;23.364;2024-01-27T08:48:44;4.40;;;1.00;;
71806;SDS011;59655;42.590;23.364;2024-01-27T08:51:09;3.35;;;1.50;;
71806;SDS011;59655;42.590;23.364;2024-01-27T08:53:36;4.00;;;1.20;;
71806;SDS011;59655;42.590;23.364;2024-01-27T08:56:02;1.80;;;0.80;;
71806;SDS011;59655;42.590;23.364;2024-01-27T08:58:28;2.55;;;0.93;;
71806;SDS011;59655;42.590;23.364;2024-01-27T09:00:53;2.27;;;0.90;;
71806;SDS011;59655;42.590;23.364;2024-01-27T09:03:18;3.05;;;0.88;;
71806;SDS011;59655;42.590;23.364;2024-01-27T09:05:45;1.92;;;0.73;;
71806;SDS011;59655;42.590;23.364;2024-01-27T09:08:11;2.17;;;0.90;;
71806;SDS011;59655;42.590;23.364;2024-01-27T09:10:38;1.70;;;0.70;;
71806;SDS011;59655;42.590;23.364;2024-01-27T09:13:04;1.48;;;0.70;;
71806;SDS011;59655;42.590;23.364;2024-01-27T09:15:33;2.00;;;0.90;;
71806;SDS011;59655;42.590;23.364;2024-01-27T09:17:59;3.83;;;2.10;;
71806;SDS011;59655;42.590;23.364;2024-01-27T09:20:24;2.03;;;0.90;;
71806;SDS011;59655;42.590;23.364;2024-01-27T09:22:49;3.03;;;1.10;;
71806;SDS011;59655;42.590;23.364;2024-01-27T09:25:16;1.27;;;0.80;;
71806;SDS011;59655;42.590;23.364;2024-01-27T09:27:42;1.77;;;1.00;;
71806;SDS011;59655;42.590;23.364;2024-01-27T09:30:08;6.85;;;1.90;;
71806;SDS011;59655;42.590;23.364;2024-01-27T09:32:35;6.38;;;1.10;;
71806;SDS011;59655;42.590;23.364;2024-01-27T09:35:01;1.80;;;1.00;;
71806;SDS011;59655;42.590;23.364;2024-01-27T09:37:26;2.05;;;1.00;;
71806;SDS011;59655;42.590;23.364;2024-01-27T09:39:51;1.75;;;1.00;;
71806;SDS011;59655;42.590;23.364;2024-01-27T09:42:18;2.35;;;1.23;;
71806;SDS011;59655;42.590;23.364;2024-01-27T09:44:45;2.00;;;1.25;;
71806;SDS011;59655;42.590;23.364;2024-01-27T09:47:17;1.13;;;0.60;;
71806;SDS011;59655;42.590;23.364;2024-01-27T09:49:42;1.83;;;0.77;;
71806;SDS011;59655;42.590;23.364;2024-01-27T09:52:08;1.85;;;0.90;;
71806;SDS011;59655;42.590;23.364;2024-01-27T09:54:34;1.88;;;0.98;;
71806;SDS011;59655;42.590;23.364;2024-01-27T09:57:02;1.23;;;0.65;;
71806;SDS011;59655;42.590;23.364;2024-01-27T09:59:28;0.95;;;0.60;;
71806;SDS011;59655;42.590;23.364;2024-01-27T10:01:55;1.42;;;0.80;;
71806;SDS011;59655;42.590;23.364;2024-01-27T10:04:22;1.90;;;0.90;;
71806;SDS011;59655;42.590;23.364;2024-01-27T10:06:50;3.17;;;1.20;;
71806;SDS011;59655;42.590;23.364;2024-01-27T10:09:16;1.90;;;0.82;;
71806;SDS011;59655;42.590;23.364;2024-01-27T10:11:43;2.28;;;0.95;;
71806;SDS011;59655;42.590;23.364;2024-01-27T10:14:12;0.88;;;0.60;;
71806;SDS011;59655;42.590;23.364;2024-01-27T10:16:41;2.20;;;1.20;;
71806;SDS011;59655;42.590;23.364;2024-01-27T10:19:08;1.95;;;1.05;;
71806;SDS011;59655;42.590;23.364;2024-01-27T10:21:39;1.63;;;0.93;;
71806;SDS011;59655;42.590;23.364;2024-01-27T10:24:04;3.10;;;1.05;;
71806;SDS011;59655;42.590;23.364;2024-01-27T10:26:31;1.98;;;0.95;;
71806;SDS011;59655;42.590;23.364;2024-01-27T10:28:57;3.05;;;1.27;;
71806;SDS011;59655;42.590;23.364;2024-01-27T10:31:26;2.30;;;1.05;;
71806;SDS011;59655;42.590;23.364;2024-01-27T10:33:53;2.65;;;1.20;;
71806;SDS011;59655;42.590;23.364;2024-01-27T10:36:19;2.97;;;1.25;;
71806;SDS011;59655;42.590;23.364;2024-01-27T10:38:44;2.72;;;1.15;;
71806;SDS011;59655;42.590;23.364;2024-01-27T10:41:10;1.20;;;0.88;;
71806;SDS011;59655;42.590;23.364;2024-01-27T10:43:36;1.98;;;1.05;;
71806;SDS011;59655;42.590;23.364;2024-01-27T10:46:06;2.83;;;1.00;;
71806;SDS011;59655;42.590;23.364;2024-01-27T10:48:35;2.25;;;1.00;;
71806;SDS011;59655;42.590;23.364;2024-01-27T10:51:08;1.77;;;0.90;;
71806;SDS011;59655;42.590;23.364;2024-01-27T10:53:37;1.58;;;0.82;;
71806;SDS011;59655;42.590;23.364;2024-01-27T10:56:04;3.80;;;0.95;;
71806;SDS011;59655;42.590;23.364;2024-01-27T10:58:34;2.58;;;0.70;;
71806;SDS011;59655;42.590;23.364;2024-01-27T11:01:07;1.25;;;0.60;;
71806;SDS011;59655;42.590;23.364;2024-01-27T11:03:34;1.25;;;0.70;;
71806;SDS011;59655;42.590;23.364;2024-01-27T11:06:03;1.00;;;0.73;;
71806;SDS011;59655;42.590;23.364;2024-01-27T11:08:30;1.50;;;0.90;;
71806;SDS011;59655;42.590;23.364;2024-01-27T11:10:56;3.03;;;1.00;;
71806;SDS011;59655;42.590;23.364;2024-01-27T11:13:23;3.38;;;0.90;;
71806;SDS011;59655;42.590;23.364;2024-01-27T11:15:53;1.48;;;0.80;;
71806;SDS011;59655;42.590;23.364;2024-01-27T11:18:19;2.15;;;0.93;;
71806;SDS011;59655;42.590;23.364;2024-01-27T11:20:45;2.35;;;0.90;;
71806;SDS011;59655;42.590;23.364;2024-01-27T11:23:11;1.80;;;0.82;;
71806;SDS011;59655;42.590;23.364;2024-01-27T11:25:38;1.38;;;0.80;;
71806;SDS011;59655;42.590;23.364;2024-01-27T11:28:10;3.50;;;1.00;;
71806;SDS011;59655;42.590;23.364;2024-01-27T11:30:39;1.80;;;0.90;;
71806;SDS011;59655;42.590;23.364;2024-01-27T11:33:09;1.55;;;0.80;;
71806;SDS011;59655;42.590;23.364;2024-01-27T11:35:35;9.73;;;1.30;;
71806;SDS011;59655;42.590;23.364;2024-01-27T11:38:01;2.00;;;1.02;;
71806;SDS011;59655;42.590;23.364;2024-01-27T11:40:26;3.25;;;1.05;;
71806;SDS011;59655;42.590;23.364;2024-01-27T11:42:58;2.47;;;0.82;;
71806;SDS011;59655;42.590;23.364;2024-01-27T11:45:25;1.33;;;0.80;;
71806;SDS011;59655;42.590;23.364;2024-01-27T11:47:53;1.60;;;0.75;;
71806;SDS011;59655;42.590;23.364;2024-01-27T11:50:18;1.65;;;0.60;;
71806;SDS011;59655;42.590;23.364;2024-01-27T11:52:44;2.65;;;0.70;;
71806;SDS011;59655;42.590;23.364;2024-01-27T11:55:09;2.83;;;1.00;;
71806;SDS011;59655;42.590;23.364;2024-01-27T11:57:35;2.63;;;0.95;;
71806;SDS011;59655;42.590;23.364;2024-01-27T12:00:00;3.08;;;1.25;;
71806;SDS011;59655;42.590;23.364;2024-01-27T12:02:25;2.38;;;1.10;;
71806;SDS011;59655;42.590;23.364;2024-01-27T12:04:51;4.65;;;1.73;;
71806;SDS011;59655;42.590;23.364;2024-01-27T12:07:17;2.45;;;1.15;;
71806;SDS011;59655;42.590;23.364;2024-01-27T12:09:46;4.28;;;1.08;;
71806;SDS011;59655;42.590;23.364;2024-01-27T12:12:12;2.53;;;0.90;;
71806;SDS011;59655;42.590;23.364;2024-01-27T12:14:41;2.08;;;0.90;;
71806;SDS011;59655;42.590;23.364;2024-01-27T12:17:14;1.98;;;1.20;;
71806;SDS011;59655;42.590;23.364;2024-01-27T12:19:45;1.90;;;0.95;;
71806;SDS011;59655;42.590;23.364;2024-01-27T12:24:53;1.77;;;0.95;;
71806;SDS011;59655;42.590;23.364;2024-01-27T12:27:20;2.72;;;1.40;;
71806;SDS011;59655;42.590;23.364;2024-01-27T12:29:47;2.83;;;1.15;;
71806;SDS011;59655;42.590;23.364;2024-01-27T12:32:14;2.08;;;1.00;;
71806;SDS011;59655;42.590;23.364;2024-01-27T12:34:41;2.03;;;1.20;;
71806;SDS011;59655;42.590;23.364;2024-01-27T12:37:13;1.58;;;1.00;;
71806;SDS011;59655;42.590;23.364;2024-01-27T12:39:44;2.53;;;1.00;;
71806;SDS011;59655;42.590;23.364;2024-01-27T12:42:10;2.00;;;1.13;;
71806;SDS011;59655;42.590;23.364;2024-01-27T12:44:36;2.03;;;1.02;;
71806;SDS011;59655;42.590;23.364;2024-01-27T12:47:02;1.60;;;1.10;;
71806;SDS011;59655;42.590;23.364;2024-01-27T12:49:29;2.25;;;1.20;;
71806;SDS011;59655;42.590;23.364;2024-01-27T12:51:54;2.28;;;1.27;;
71806;SDS011;59655;42.590;23.364;2024-01-27T12:54:20;3.15;;;1.30;;
71806;SDS011;59655;42.590;23.364;2024-01-27T12:56:45;1.65;;;1.10;;
71806;SDS011;59655;42.590;23.364;2024-01-27T12:59:10;2.05;;;1.30;;
71806;SDS011;59655;42.590;23.364;2024-01-27T13:01:36;1.80;;;1.10;;
71806;SDS011;59655;42.590;23.364;2024-01-27T13:04:02;1.90;;;1.13;;
71806;SDS011;59655;42.590;23.364;2024-01-27T13:06:27;2.53;;;1.40;;
71806;SDS011;59655;42.590;23.364;2024-01-27T13:08:53;1.77;;;1.00;;
71806;SDS011;59655;42.590;23.364;2024-01-27T13:11:19;1.92;;;1.40;;
71806;SDS011;59655;42.590;23.364;2024-01-27T13:13:45;1.98;;;1.10;;
71806;SDS011;59655;42.590;23.364;2024-01-27T13:16:10;3.17;;;1.00;;
71806;SDS011;59655;42.590;23.364;2024-01-27T13:18:36;2.67;;;1.15;;
71806;SDS011;59655;42.590;23.364;2024-01-27T13:21:02;1.88;;;0.85;;
71806;SDS011;59655;42.590;23.364;2024-01-27T13:23:29;1.70;;;1.00;;
71806;SDS011;59655;42.590;23.364;2024-01-27T13:25:55;2.40;;;0.88;;
71806;SDS011;59655;42.590;23.364;2024-01-27T13:28:20;2.50;;;0.95;;
71806;SDS011;59655;42.590;23.364;2024-01-27T13:30:45;2.17;;;0.93;;
71806;SDS011;59655;42.590;23.364;2024-01-27T13:33:11;2.73;;;1.00;;
71806;SDS011;59655;42.590;23.364;2024-01-27T13:35:37;3.78;;;1.05;;
71806;SDS011;59655;42.590;23.364;2024-01-27T13:38:05;2.72;;;1.10;;
71806;SDS011;59655;42.590;23.364;2024-01-27T13:40:30;2.40;;;1.00;;
71806;SDS011;59655;42.590;23.364;2024-01-27T13:42:56;1.38;;;0.90;;
71806;SDS011;59655;42.590;23.364;2024-01-27T13:45:22;2.20;;;0.90;;
71806;SDS011;59655;42.590;23.364;2024-01-27T13:47:48;1.60;;;0.80;;
71806;SDS011;59655;42.590;23.364;2024-01-27T13:50:13;3.03;;;1.08;;
71806;SDS011;59655;42.590;23.364;2024-01-27T13:52:39;1.52;;;0.82;;
71806;SDS011;59655;42.590;23.364;2024-01-27T13:55:06;4.93;;;1.00;;
71806;SDS011;59655;42.590;23.364;2024-01-27T13:57:31;1.73;;;0.93;;
71806;SDS011;59655;42.590;23.364;2024-01-27T13:59:57;1.95;;;0.88;;
71806;SDS011;59655;42.590;23.364;2024-01-27T14:02:22;2.03;;;1.10;;
71806;SDS011;59655;42.590;23.364;2024-01-27T14:04:48;3.30;;;1.20;;
71806;SDS011;59655;42.590;23.364;2024-01-27T14:07:14;2.55;;;0.95;;
71806;SDS011;59655;42.590;23.364;2024-01-27T14:09:39;2.05;;;1.10;;
71806;SDS011;59655;42.590;23.364;2024-01-27T14:12:04;2.58;;;0.80;;
71806;SDS011;59655;42.590;23.364;2024-01-27T14:14:30;3.50;;;0.90;;
71806;SDS011;59655;42.590;23.364;2024-01-27T14:16:56;2.83;;;0.93;;
71806;SDS011;59655;42.590;23.364;2024-01-27T14:19:22;2.40;;;0.90;;
71806;SDS011;59655;42.590;23.364;2024-01-27T14:21:47;2.58;;;1.00;;
71806;SDS011;59655;42.590;23.364;2024-01-27T14:24:12;3.58;;;0.90;;
71806;SDS011;59655;42.590;23.364;2024-01-27T14:26:38;3.13;;;0.95;;